Darby, MT

5:54 PM MDT on September 04, 2015 (GMT -0600)
Dutch Hill | | Change Station
CLOSE
Current Station
Personal Weather Station
Location: Hamilton, MT
Elevation: 3668 ft
Nearby Weather Stations

Elev 3668 ft 46.31 °N, 114.18 °W | Updated 31 seconds ago

Overcast
Overcast
62.3 °F
Feels Like 62.3 °F
N
0.0
Wind Variable Wind from SSW
Gusts 0.0 mph

Today
High -- | Low -- °F
--% Chance of Precip.
Yesterday
High -- | Low -- °F
Precip. -- in
7:01 AM 8:09 PM
Waning Gibbous, 55% visible
Pressure 29.89 in
Visibility 9.0 miles
Clouds Few 3100 ft
Scattered Clouds 5000 ft
Mostly Cloudy 7000 ft
Dew Point 36 °F
Humidity 37%
Rainfall Not available.
Snow Depth Not available.
UV 1 out of 12
Pollen 4.50 out of 12
Air Quality Not available.
Flu Activity Not available.
METAR KSMN 042335Z AUTO 00000KT 9SM FEW031 SCT050 BKN070 10/08 A2989 RMK AO1 TSB2259E29 P0011
Pressure 29.89 in
Visibility 9.0 miles
Clouds Few 3100 ft
Scattered Clouds 5000 ft
Mostly Cloudy 7000 ft
Dew Point 36 °F
Humidity 37%
Rainfall Not available.
Snow Depth Not available.
UV 1 out of 12
Pollen 4.50 out of 12
Air Quality Not available.
Flu Activity Not available.
METAR KSMN 042335Z AUTO 00000KT 9SM FEW031 SCT050 BKN070 10/08 A2989 RMK AO1 TSB2259E29 P0011

10-Day Weather Forecast

×

Almanac

Astronomy

Sep. 04, 2015 Rise Set
Actual Time
Civil Twilight
Nautical Twilight
Astronomical Twilight
Moon
Length of Visible Light
Length of Day
Tomorrow will be .
, % of the Moon is Illuminated

Today's Extremes

State Highs State Lows

Community

WunderPhotos

Upload Photos

1,852,338 photos uploaded!

WunderBlogs® & News

Nearby

Air Quality

  Air Quality AQ Index Pollutant
Not available.

Snow Depth

Station Depth Elevation

Earthquake Activity

City Distance Mag. Time & Date
Minimum magnitude displayed is 2.5.

Coastal Water Temperatures

Place Temperature

Stations

Nearby Weather Stations

Station Location Temp. Windchill Dew Point Humidity Wind Precip. Elev Updated Type